Time;durP1;ratioP1;P1;durP2;ratioP2;P2;SDS_P1;SDS_P2;PMS_P1;PMS_P2;Temp;Humidity;BMP_temperature;BMP_pressure;BME280_temperature;BME280_humidity;BME280_pressure;Samples;Min_cycle;Max_cycle;Signal;HPM_P1;HPM_P2
2021/10/25 00:01:34;;;;;;;8.85;2.20;;;;;;;11.70;85.83;100316.13;4853089;29;20125;-75
2021/10/25 00:07:28;;;;;;;;;;;;;;;;;;;;;
2021/10/25 00:10:12;;;;;;;;;;;;;;;;;;;;;
2021/10/25 00:12:40;;;;;;;11.20;1.70;;;;;;;11.66;86.09;100315.84;4915612;29;20031;-75
2021/10/25 00:15:10;;;;;;;14.27;1.85;;;;;;;11.68;86.05;100316.41;4903445;29;20067;-75
2021/10/25 00:17:39;;;;;;;9.02;1.17;;;;;;;11.65;85.97;100307.91;4914402;29;20036;-75
2021/10/25 00:20:07;;;;;;;12.40;2.22;;;;;;;11.65;86.16;100308.75;4913604;29;20055;-75
2021/10/25 00:22:35;;;;;;;11.18;2.08;;;;;;;11.68;85.57;100313.66;4918672;29;20028;-76
2021/10/25 00:25:01;;;;;;;10.98;1.52;;;;;;;11.67;86.32;100312.00;4894626;29;20038;-74
2021/10/25 00:27:40;;;;;;;10.38;2.08;;;;;;;11.65;85.65;100308.75;4900517;29;20028;-76
2021/10/25 00:30:07;;;;;;;9.45;1.65;;;;;;;11.64;85.87;100306.28;4880362;29;20036;-75
2021/10/25 00:32:49;;;;;;;3.08;1.10;;;;;;;11.58;85.38;100297.25;4917254;29;20028;-75
2021/10/25 00:35:15;;;;;;;17.00;3.53;;;;;;;11.58;85.74;100301.88;4897249;29;20036;-76
2021/10/25 00:37:42;;;;;;;7.72;2.10;;;;;;;11.64;85.85;100312.56;4905591;29;20036;-74
2021/10/25 00:40:20;;;;;;;12.60;2.80;;;;;;;11.61;85.47;100324.09;4899389;29;20032;-74
2021/10/25 00:42:50;;;;;;;8.07;1.95;;;;;;;11.57;85.90;100312.03;4900026;29;20032;-76
2021/10/25 00:45:25;;;;;;;5.40;1.40;;;;;;;11.58;85.81;100304.63;4911590;29;20028;-76
2021/10/25 00:47:56;;;;;;;4.35;1.00;;;;;;;11.68;85.55;100319.16;4926049;29;20033;-75
2021/10/25 00:50:51;;;;;;;5.70;1.63;;;;;;;11.66;85.59;100315.03;4881043;29;20169;-75
2021/10/25 00:53:21;;;;;;;8.05;1.63;;;;;;;11.58;85.43;100308.19;4890391;29;20042;-75
2021/10/25 00:55:57;;;;;;;8.05;1.98;;;;;;;11.58;85.22;100297.25;4901654;29;20467;-77
2021/10/25 00:58:37;;;;;;;7.53;1.85;;;;;;;11.57;85.76;100295.59;4898555;29;20046;-76
2021/10/25 01:01:04;;;;;;;8.98;1.67;;;;;;;11.46;85.47;100280.28;4911394;29;20028;-75
2021/10/25 01:03:35;;;;;;;10.32;2.92;;;;;;;11.56;85.75;100298.63;4889216;29;20424;-77
2021/10/25 01:06:04;;;;;;;14.65;2.60;;;;;;;11.48;85.28;100286.31;4912845;29;20055;-77
2021/10/25 01:08:37;;;;;;;8.93;1.92;;;;;;;11.48;85.34;100291.78;4907663;29;20040;-77
2021/10/25 01:11:05;;;;;;;2.90;1.48;;;;;;;11.55;85.31;100306.03;4924699;29;20052;-76
2021/10/25 01:13:33;;;;;;;17.88;2.33;;;;;;;11.47;85.81;100296.41;4909256;29;20051;-75
2021/10/25 01:16:01;;;;;;;10.48;2.08;;;;;;;11.49;84.95;100298.88;4911030;29;20029;-76
2021/10/25 01:18:27;;;;;;;7.95;1.90;;;;;;;11.47;85.69;100295.59;4893889;29;20035;-75
2021/10/25 01:21:12;;;;;;;6.55;2.45;;;;;;;11.32;85.62;100272.63;4896199;29;20375;-75
2021/10/25 01:23:38;;;;;;;9.40;2.70;;;;;;;11.47;85.49;100303.81;4915371;29;20104;-76
2021/10/25 01:26:04;;;;;;;5.20;1.63;;;;;;;11.44;85.54;100296.97;4900637;29;20119;-77
2021/10/25 01:28:30;;;;;;;11.88;2.22;;;;;;;11.44;85.43;100296.16;4906692;29;20028;-73
2021/10/25 01:30:55;;;;;;;11.90;1.42;;;;;;;11.31;85.91;100276.44;4886839;29;20046;-72
2021/10/25 01:33:23;;;;;;;10.20;1.67;;;;;;;11.28;85.96;100271.53;4897281;29;20028;-74
2021/10/25 01:35:49;;;;;;;10.43;2.35;;;;;;;11.33;85.59;100290.69;4914277;29;20024;-73
2021/10/25 01:38:23;;;;;;;3.65;1.00;;;;;;;11.39;85.66;100287.94;4912679;29;20383;-74
2021/10/25 01:40:51;;;;;;;10.40;2.00;;;;;;;11.23;85.33;100266.06;4913779;29;20028;-73
2021/10/25 01:43:26;;;;;;;9.05;1.92;;;;;;;11.22;85.92;100272.63;4897849;29;20043;-75
2021/10/25 01:45:52;;;;;;;7.20;2.63;;;;;;;11.28;85.47;100282.47;4900909;29;20086;-74
2021/10/25 01:48:17;;;;;;;6.47;1.45;;;;;;;11.32;85.74;100294.53;4909219;29;20040;-73
2021/10/25 01:50:43;;;;;;;5.63;1.13;;;;;;;11.23;85.48;100279.75;4912492;29;20156;-73
2021/10/25 01:53:11;;;;;;;8.52;1.55;;;;;;;11.27;85.66;100272.63;4900605;29;20363;-74
2021/10/25 01:55:37;;;;;;;2.80;1.02;;;;;;;11.26;85.65;100284.66;4897418;29;20039;-74
2021/10/25 01:58:04;;;;;;;7.40;1.30;;;;;;;11.30;85.79;100291.25;4914916;29;20040;-73
2021/10/25 02:00:30;;;;;;;6.03;1.33;;;;;;;11.31;85.71;100279.19;4916935;29;20024;-75
2021/10/25 02:02:56;;;;;;;3.58;0.95;;;;;;;11.26;85.38;100271.00;4919154;29;20125;-73
2021/10/25 02:05:35;;;;;;;3.20;1.00;;;;;;;11.29;85.77;100275.09;4941166;29;20039;-73
2021/10/25 02:08:01;;;;;;;6.22;1.05;;;;;;;11.25;85.48;100266.59;4934127;29;20040;-74
2021/10/25 02:10:36;;;;;;;8.60;2.30;;;;;;;11.13;85.19;100247.72;4933509;29;20092;-74
2021/10/25 02:13:12;;;;;;;;;;;;;;;;;;;;;
2021/10/25 02:15:38;;;;;;;2.78;0.90;;;;;;;11.19;85.31;100251.28;4919252;29;20026;-73
2021/10/25 02:18:22;;;;;;;5.32;0.82;;;;;;;11.23;85.40;100257.84;4901867;29;20119;-74
2021/10/25 02:21:04;;;;;;;9.48;1.40;;;;;;;11.26;85.21;100262.78;4895343;29;20832;-74
2021/10/25 02:23:41;;;;;;;4.60;1.17;;;;;;;11.16;85.48;100255.38;4890752;29;20036;-75
2021/10/25 02:26:06;;;;;;;4.07;1.15;;;;;;;11.19;85.15;100259.50;4908282;29;20451;-74
2021/10/25 02:28:32;;;;;;;3.30;1.15;;;;;;;11.22;85.93;100260.88;4911226;29;20087;-75
2021/10/25 02:31:14;;;;;;;;;;;;;;;;;;;;;
2021/10/25 02:33:50;;;;;;;2.35;0.70;;;;;;;11.23;85.51;100263.31;4913413;29;20027;-75
2021/10/25 02:39:03;;;;;;;1.63;0.65;;;;;;;11.22;85.65;100258.13;4913664;29;20046;-77
2021/10/25 02:41:29;;;;;;;4.25;1.02;;;;;;;11.21;85.35;100262.75;4912956;29;20039;-74
2021/10/25 02:43:57;;;;;;;3.58;1.02;;;;;;;11.03;85.35;100231.31;4913415;29;20027;-75
2021/10/25 02:47:04;;;;;;;4.28;1.00;;;;;;;11.07;85.21;100242.50;4885969;29;20064;-75
2021/10/25 02:49:58;;;;;;;;;;;;;;;;;;;;;
2021/10/25 02:52:42;;;;;;;3.88;1.23;;;;;;;11.10;84.92;100240.06;4918811;29;20032;-75
2021/10/25 02:55:10;;;;;;;2.95;0.95;;;;;;;11.12;84.74;100246.06;4882861;29;20064;-75
2021/10/25 02:57:57;;;;;;;1.50;0.50;;;;;;;11.07;85.13;100248.81;4875850;29;20119;-74
2021/10/25 03:00:46;;;;;;;1.50;0.47;;;;;;;10.97;84.65;100221.47;4894474;29;20100;-76
2021/10/25 03:03:11;;;;;;;5.10;0.85;;;;;;;10.94;85.41;100217.34;4870043;29;20119;-75
2021/10/25 03:05:47;;;;;;;5.70;0.85;;;;;;;11.09;84.77;100237.59;4897384;29;20071;-73
2021/10/25 03:08:30;;;;;;;;;;;;;;;11.12;85.13;100242.53;4894074;29;20152;-74
2021/10/25 03:10:55;;;;;;;4.00;0.95;;;;;;;10.99;84.35;100222.84;4892954;29;19911;-76
2021/10/25 03:13:21;;;;;;;4.32;1.08;;;;;;;11.03;84.63;100230.50;4894777;29;20048;-74
2021/10/25 03:15:55;;;;;;;1.35;0.40;;;;;;;10.93;84.78;100215.69;4891522;29;20029;-71
2021/10/25 03:18:23;;;;;;;0.80;0.50;;;;;;;10.97;84.91;100216.00;4881123;29;20515;-73
2021/10/25 03:21:04;;;;;;;4.43;0.77;;;;;;;10.96;84.80;100215.16;4895905;29;20032;-74
2021/10/25 03:23:33;;;;;;;1.27;0.60;;;;;;;11.02;84.86;100229.66;4875298;29;20064;-75
2021/10/25 03:26:01;;;;;;;3.28;0.88;;;;;;;10.94;85.07;100217.34;4872661;29;20468;-77
2021/10/25 03:28:37;;;;;;;;;;;;;;;;;;;;;
2021/10/25 03:31:06;;;;;;;0.30;0.30;;;;;;;11.01;84.36;100241.72;4902822;29;20056;-77
2021/10/25 03:33:41;;;;;;;1.27;0.40;;;;;;;10.96;84.24;100237.03;4882209;29;20032;-76
2021/10/25 03:36:09;;;;;;;0.68;0.45;;;;;;;10.88;84.85;100229.38;4883188;29;20065;-78
2021/10/25 03:38:38;;;;;;;0.10;0.10;;;;;;;10.77;84.06;100212.13;4901135;29;20031;-79
2021/10/25 03:41:17;;;;;;;;;;;;;;;;;;;;;
2021/10/25 03:43:49;;;;;;;1.13;0.20;;;;;;;10.67;83.81;100208.59;4895107;29;20391;-74
2021/10/25 03:51:50;;;;;;;0.10;0.10;;;;;;;10.61;83.74;100226.88;4878957;29;20036;-73
2021/10/25 04:29:18;;;;;;;0.35;0.10;;;;;;;11.26;84.52;100238.13;4899966;29;20435;-75
2021/10/25 04:31:44;;;;;;;0.15;0.08;;;;;;;11.30;84.69;100225.53;4899485;29;20035;-75
2021/10/25 04:34:09;;;;;;;0.00;0.00;;;;;;;11.43;84.68;100245.22;4887404;29;20055;-75
2021/10/25 04:36:47;;;;;;;;;;;;;;;;;;;;;
2021/10/25 04:39:23;;;;;;;0.32;0.08;;;;;;;11.54;84.68;100246.84;4899724;29;20012;-75
2021/10/25 04:41:48;;;;;;;0.00;0.00;;;;;;;11.45;84.70;100232.91;4885731;29;20032;-75
2021/10/25 04:44:14;;;;;;;0.10;0.10;;;;;;;11.54;84.71;100244.13;4899588;29;20088;-75
2021/10/25 04:46:39;;;;;;;0.10;0.10;;;;;;;11.59;84.48;100243.28;4902507;29;20031;-74
2021/10/25 04:49:07;;;;;;;0.10;0.10;;;;;;;11.62;84.81;100248.22;4883171;29;20036;-76
2021/10/25 04:51:35;;;;;;;0.05;0.03;;;;;;;11.58;84.59;100236.16;4884221;29;20467;-74
2021/10/25 04:54:12;;;;;;;;;;;;;;;;;;;;;
2021/10/25 04:57:01;;;;;;;0.00;0.00;;;;;;;11.69;84.34;100243.25;4918440;29;20032;-76
2021/10/25 04:59:43;;;;;;;0.35;0.10;;;;;;;11.70;84.75;100245.72;4906667;29;20074;-72
2021/10/25 05:02:12;;;;;;;1.45;0.20;;;;;;;11.63;83.83;100227.94;4913208;29;20032;-70
2021/10/25 05:04:37;;;;;;;0.95;0.43;;;;;;;11.66;84.11;100224.66;4908056;29;20459;-70
2021/10/25 05:07:08;;;;;;;0.38;0.30;;;;;;;11.77;84.49;100248.19;4905544;29;20036;-74
2021/10/25 05:09:33;;;;;;;0.43;0.30;;;;;;;11.74;84.78;100248.75;4896350;29;20557;-74
2021/10/25 05:12:02;;;;;;;2.10;0.75;;;;;;;11.74;84.06;100229.56;4890986;29;20066;-74
2021/10/25 05:14:28;;;;;;;0.68;0.35;;;;;;;11.68;83.75;100226.00;4901113;29;20051;-72
2021/10/25 05:16:54;;;;;;;0.17;0.10;;;;;;;11.68;84.39;100241.59;4896834;29;20111;-73
2021/10/25 05:19:20;;;;;;;0.45;0.38;;;;;;;11.57;84.11;100224.41;4915847;29;20075;-72
2021/10/25 05:21:45;;;;;;;0.70;0.60;;;;;;;11.53;84.03;100234.25;4914474;29;20024;-74
2021/10/25 05:24:11;;;;;;;1.10;0.45;;;;;;;11.48;84.25;100237.84;4898625;29;20123;-73
2021/10/25 05:26:39;;;;;;;1.73;0.65;;;;;;;11.47;84.25;100240.84;4916881;29;20052;-73
2021/10/25 05:29:07;;;;;;;0.90;0.47;;;;;;;11.41;84.19;100231.00;4910650;29;20082;-75
2021/10/25 05:31:35;;;;;;;1.10;1.00;;;;;;;11.44;84.62;100235.94;4899026;29;20033;-74
2021/10/25 05:34:01;;;;;;;0.50;0.38;;;;;;;11.29;84.18;100210.22;4913628;29;20554;-74
2021/10/25 05:36:29;;;;;;;0.73;0.30;;;;;;;11.42;84.33;100238.94;4914223;29;20028;-74
2021/10/25 05:38:54;;;;;;;0.75;0.40;;;;;;;11.39;84.20;100234.03;4895333;29;20039;-74
2021/10/25 05:41:20;;;;;;;0.60;0.40;;;;;;;11.40;84.39;100230.16;4913091;29;20024;-76
2021/10/25 05:43:48;;;;;;;1.52;0.73;;;;;;;11.44;84.72;100231.25;4914977;29;20023;-74
2021/10/25 05:46:16;;;;;;;1.17;0.57;;;;;;;11.52;84.69;100235.34;4878398;29;20032;-75
2021/10/25 05:48:42;;;;;;;2.83;0.80;;;;;;;11.60;84.41;100234.78;4924312;29;20108;-78
2021/10/25 05:51:08;;;;;;;0.95;0.57;;;;;;;11.66;84.59;100238.34;4901496;29;20043;-76
2021/10/25 05:53:51;;;;;;;2.78;0.80;;;;;;;11.66;84.65;100239.16;4892564;29;20048;-76
2021/10/25 05:56:17;;;;;;;7.18;1.52;;;;;;;11.60;84.15;100218.34;4883593;29;20051;-76
2021/10/25 05:58:43;;;;;;;1.08;0.68;;;;;;;11.55;84.08;100214.81;4884067;29;20044;-75
2021/10/25 06:01:13;;;;;;;1.75;0.93;;;;;;;11.55;84.55;100214.81;4899771;29;20176;-75
2021/10/25 06:04:10;;;;;;;2.75;0.88;;;;;;;11.49;84.13;100211.25;4892536;29;20029;-77
2021/10/25 06:06:36;;;;;;;2.47;0.80;;;;;;;11.43;83.99;100207.72;4872461;29;20040;-75
2021/10/25 06:09:21;;;;;;;3.22;0.93;;;;;;;11.50;84.22;100226.59;4894544;29;20164;-73
2021/10/25 06:11:47;;;;;;;6.43;0.70;;;;;;;11.41;84.42;100220.06;4894271;29;20494;-75
2021/10/25 06:14:15;;;;;;;4.35;1.02;;;;;;;11.32;84.21;100212.41;4893284;29;20045;-73
2021/10/25 06:16:42;;;;;;;1.40;0.77;;;;;;;11.22;84.02;100198.72;4882844;29;20070;-76
2021/10/25 06:19:10;;;;;;;2.35;0.93;;;;;;;11.27;84.92;100206.94;4865313;29;20048;-74
2021/10/25 06:21:46;;;;;;;;;;;;;;;;;;;;;
2021/10/25 06:24:27;;;;;;;1.20;0.68;;;;;;;11.15;84.63;100200.91;4896532;29;20693;-75
2021/10/25 06:26:56;;;;;;;2.25;0.68;;;;;;;11.07;84.13;100206.94;4883390;29;20032;-77
2021/10/25 06:29:53;;;;;;;1.88;0.60;;;;;;;11.15;84.05;100222.81;4897891;29;20029;-74
2021/10/25 06:32:33;;;;;;;0.60;0.50;;;;;;;10.96;84.18;100209.69;4896750;29;20044;-75
2021/10/25 06:35:09;;;;;;;0.20;0.20;;;;;;;11.02;84.54;100220.63;4898581;29;20025;-77
2021/10/25 06:37:49;;;;;;;0.15;0.10;;;;;;;10.92;84.44;100214.06;4902232;29;20054;-75
2021/10/25 06:40:17;;;;;;;1.95;0.22;;;;;;;10.97;83.78;100227.75;4895893;29;20432;-76
2021/10/25 06:42:42;;;;;;;0.57;0.10;;;;;;;10.86;83.97;100220.63;4907232;29;20055;-76
2021/10/25 06:45:13;;;;;;;0.10;0.10;;;;;;;10.90;83.90;100224.47;4888004;29;20096;-75
2021/10/25 06:47:39;;;;;;;0.30;0.20;;;;;;;10.84;83.52;100228.28;4896472;29;20029;-76
2021/10/25 06:50:07;;;;;;;0.10;0.10;;;;;;;10.75;83.86;100219.81;4874561;29;20033;-75
2021/10/25 06:53:04;;;;;;;0.70;0.38;;;;;;;10.88;84.18;100245.81;4880471;29;20112;-80
2021/10/25 06:55:37;;;;;;;2.63;1.00;;;;;;;10.91;84.00;100258.94;4909825;29;20405;-74
2021/10/25 06:58:06;;;;;;;2.65;1.08;;;;;;;10.83;84.63;100246.63;4911415;29;20368;-73
2021/10/25 07:00:31;;;;;;;1.23;1.00;;;;;;;10.88;84.13;100256.75;4912256;29;21521;-75
2021/10/25 07:03:07;;;;;;;;;;;;;;;;;;;;;
2021/10/25 07:06:00;;;;;;;0.88;0.63;;;;;;;10.96;84.80;100263.59;4911385;29;20030;-73
2021/10/25 07:08:28;;;;;;;7.22;0.60;;;;;;;10.93;84.03;100259.47;4909658;29;20036;-73
2021/10/25 07:10:54;;;;;;;0.63;0.40;;;;;;;10.99;84.64;100263.88;4910209;29;20152;-73
2021/10/25 07:13:25;;;;;;;2.22;0.65;;;;;;;11.04;84.89;100262.22;4907193;29;20532;-72
2021/10/25 07:16:09;;;;;;;1.95;1.05;;;;;;;11.12;84.70;100261.69;4892186;29;20148;-73
2021/10/25 08:04:15;;;;;;;3.67;0.95;;;;;;;11.96;84.78;100319.66;4887177;29;20040;-72
2021/10/25 08:12:06;;;;;;;0.60;0.50;;;;;;;12.24;84.24;100303.69;4896814;29;20037;-74
2021/10/25 08:14:39;;;;;;;0.82;0.57;;;;;;;12.39;84.47;100306.34;4884852;29;20023;-73
2021/10/25 08:17:07;;;;;;;0.30;0.30;;;;;;;12.54;83.79;100296.41;4894741;29;20467;-74
2021/10/25 08:19:33;;;;;;;0.90;0.40;;;;;;;12.67;83.77;100301.28;4896050;29;20491;-77
2021/10/25 08:22:27;;;;;;;0.70;0.35;;;;;;;12.61;83.61;100288.69;4899671;29;20028;-76
2021/10/25 08:24:56;;;;;;;5.72;0.90;;;;;;;12.46;82.79;100284.13;4894148;29;20044;-78
2021/10/25 08:27:29;;;;;;;2.60;1.40;;;;;;;12.73;83.59;100300.16;4882724;29;20025;-78
2021/10/25 08:30:08;;;;;;;1.15;0.93;;;;;;;12.79;82.96;100297.38;4899310;29;20021;-80
2021/10/25 08:35:25;;;;;;;3.20;0.95;;;;;;;12.97;83.06;100285.72;4903058;29;20056;-78
2021/10/25 08:40:40;;;;;;;3.08;0.80;;;;;;;14.11;80.24;100283.56;4892582;29;20116;-77
2021/10/25 08:43:22;;;;;;;6.05;0.68;;;;;;;14.61;79.80;100296.16;4898726;29;20037;-78
2021/10/25 08:45:51;;;;;;;3.40;1.42;;;;;;;14.96;78.73;100307.81;4903138;29;20036;-79
2021/10/25 08:48:27;;;;;;;7.07;0.77;;;;;;;15.26;78.15;100302.91;4898967;29;20005;-79
2021/10/25 08:50:53;;;;;;;4.68;1.67;;;;;;;15.38;77.43;100297.78;4902462;29;20088;-78
2021/10/25 08:53:30;;;;;;;4.97;0.88;;;;;;;15.69;77.37;100297.25;4894589;29;20052;-78
2021/10/25 08:56:02;;;;;;;1.70;0.70;;;;;;;16.01;76.37;100314.88;4901626;29;20046;-77
2021/10/25 08:58:38;;;;;;;7.07;0.77;;;;;;;16.23;76.00;100309.44;4902603;29;20043;-77
2021/10/25 09:01:06;;;;;;;1.45;1.05;;;;;;;16.28;75.56;100291.16;4902717;29;20082;-78
2021/10/25 09:03:49;;;;;;;;;;;;;;;;;;;;;
2021/10/25 09:06:25;;;;;;;;;;;;;;;;;;;;;
2021/10/25 09:09:27;;;;;;;;;;;;;;;;;;;;;
2021/10/25 09:12:17;;;;;;;3.55;0.80;;;;;;;17.41;73.62;100280.31;4870299;29;20386;-80
2021/10/25 09:14:58;;;;;;;;;;;;;;;;;;;;;
2021/10/25 09:17:34;;;;;;;;;;;;;;;;;;;;;
2021/10/25 09:20:06;;;;;;;2.17;0.60;;;;;;;18.33;71.32;100296.38;4899289;29;20054;-77
2021/10/25 09:22:32;;;;;;;1.80;0.55;;;;;;;18.68;70.24;100307.53;4916469;29;20055;-76
2021/10/25 09:24:58;;;;;;;9.98;1.52;;;;;;;19.07;69.50;100307.75;4896645;29;20028;-77
2021/10/25 09:27:47;;;;;;;3.55;0.75;;;;;;;19.43;69.43;100298.25;4911889;29;20040;-76
2021/10/25 09:30:27;;;;;;;;;;;;;;;;;;;;;
2021/10/25 09:33:11;;;;;;;;;;;;;;;;;;;;;
2021/10/25 09:35:53;;;;;;;4.80;0.90;;;;;;;21.20;66.34;100303.41;4919860;29;20095;-78
2021/10/25 09:49:35;;;;;;;5.57;1.30;;;;;;;21.67;58.21;100291.19;4914939;29;20422;-85
2021/10/25 09:52:08;;;;;;;1.55;0.70;;;;;;;20.96;58.32;100299.38;4916990;29;20044;-83
2021/10/25 09:54:35;;;;;;;1.88;0.70;;;;;;;20.30;59.69;100286.88;4888544;29;20047;-79
2021/10/25 09:59:53;;;;;;;6.25;1.02;;;;;;;19.71;61.14;100293.97;4922039;29;20027;-78
2021/10/25 10:02:32;;;;;;;;;;;;;;;;;;;;;
2021/10/25 10:05:20;;;;;;;3.63;1.02;;;;;;;19.20;59.89;100301.22;4914909;29;20027;-77
2021/10/25 10:07:57;;;;;;;0.52;0.40;;;;;;;18.61;60.40;100291.38;4886926;29;20032;-77
2021/10/25 10:10:24;;;;;;;4.82;0.80;;;;;;;18.35;60.95;100304.38;4913759;29;20154;-79
2021/10/25 10:12:51;;;;;;;3.75;0.60;;;;;;;18.04;62.12;100297.75;4917689;29;20121;-78
2021/10/25 10:15:29;;;;;;;5.18;0.60;;;;;;;17.83;61.85;100289.19;4918944;29;20024;-79
2021/10/25 10:18:03;;;;;;;2.17;1.05;;;;;;;17.63;62.16;100280.28;4902299;29;20047;-78
2021/10/25 10:20:48;;;;;;;9.00;0.83;;;;;;;17.76;62.55;100286.84;4915856;29;20510;-74
2021/10/25 10:23:42;;;;;;;3.15;0.70;;;;;;;18.77;63.27;100299.25;4913358;29;20024;-81
2021/10/25 10:26:16;;;;;;;1.42;0.50;;;;;;;19.93;59.58;100303.22;4910877;29;20051;-76
2021/10/25 10:29:06;;;;;;;;;;;;;;;20.59;57.54;100304.69;4913078;29;20060;-75
2021/10/25 10:31:41;;;;;;;1.45;0.50;;;;;;;20.81;57.43;100283.28;4896266;29;19915;-76
2021/10/25 10:34:33;;;;;;;;;;;;;;;;;;;;;
2021/10/25 10:37:03;;;;;;;2.35;0.77;;;;;;;22.61;51.47;100295.88;4922119;29;20100;-76
2021/10/25 10:39:33;;;;;;;4.80;1.40;;;;;;;22.93;51.30;100296.03;4925994;29;20030;-76
2021/10/25 10:42:02;;;;;;;2.35;0.73;;;;;;;22.61;48.55;100306.22;4903607;29;20482;-76
2021/10/25 10:44:29;;;;;;;4.20;1.15;;;;;;;22.74;48.57;100302.25;4885920;29;20032;-75
2021/10/25 10:47:08;;;;;;;1.35;0.85;;;;;;;23.17;47.38;100311.09;4881772;29;20024;-75
2021/10/25 10:49:44;;;;;;;1.13;0.60;;;;;;;22.97;47.65;100313.69;4897556;29;20032;-76
2021/10/25 10:52:38;;;;;;;2.05;0.60;;;;;;;22.47;47.83;100304.63;4895830;29;20036;-76
2021/10/25 10:55:34;;;;;;;2.42;0.65;;;;;;;21.55;47.69;100317.84;4883615;29;20128;-78
2021/10/25 11:04:36;;;;;;;1.77;0.55;;;;;;;18.76;54.23;100308.69;4818521;29;20070;-75
2021/10/25 11:07:04;;;;;;;1.77;0.50;;;;;;;19.94;53.73;100335.34;4887274;29;20067;-76
2021/10/25 11:09:40;;;;;;;2.70;0.45;;;;;;;20.14;51.11;100310.81;4876519;29;20033;-75
2021/10/25 11:12:08;;;;;;;0.98;0.25;;;;;;;20.68;52.48;100324.91;4857058;29;20140;-76
2021/10/25 11:14:42;;;;;;;1.73;1.02;;;;;;;22.20;51.09;100320.03;4889232;29;20052;-75
2021/10/25 11:20:07;;;;;;;1.58;0.40;;;;;;;25.25;41.78;100321.00;4893340;29;20108;-79
2021/10/25 11:22:35;;;;;;;2.40;0.40;;;;;;;25.82;40.08;100342.94;4863034;29;20472;-77
2021/10/25 11:25:07;;;;;;;0.80;0.40;;;;;;;26.31;38.71;100335.78;4891380;29;20123;-78
2021/10/25 11:27:36;;;;;;;0.90;0.45;;;;;;;26.28;35.59;100334.56;4898892;29;20025;-77
2021/10/25 11:30:05;;;;;;;1.23;0.40;;;;;;;26.08;36.12;100335.78;4890602;29;20063;-77
2021/10/25 11:32:31;;;;;;;1.20;0.40;;;;;;;26.53;36.13;100344.53;4878828;29;20036;-79
2021/10/25 11:34:58;;;;;;;0.75;0.43;;;;;;;26.93;33.61;100338.34;4876312;29;20025;-77
2021/10/25 11:37:26;;;;;;;7.72;0.57;;;;;;;26.68;33.80;100331.56;4878668;29;20029;-78
2021/10/25 11:42:29;;;;;;;1.38;0.45;;;;;;;26.07;33.85;100320.19;4881048;29;20826;-81
2021/10/25 11:45:06;;;;;;;1.20;0.50;;;;;;;25.31;34.96;100324.38;4873064;29;20031;-77
2021/10/25 11:47:59;;;;;;;3.72;0.75;;;;;;;25.39;36.89;100325.31;4874323;29;20096;-78
2021/10/25 11:50:40;;;;;;;;;;;;;;;;;;;;;
2021/10/25 11:53:51;;;;;;;3.22;0.55;;;;;;;24.07;37.70;100319.13;4893414;29;20035;-76
2021/10/25 11:56:17;;;;;;;0.55;0.40;;;;;;;22.79;39.56;100310.38;4885554;29;20048;-76
2021/10/25 11:58:48;;;;;;;1.75;0.47;;;;;;;21.81;41.63;100313.13;4895845;29;20052;-77
2021/10/25 12:01:16;;;;;;;0.68;0.40;;;;;;;22.47;42.10;100306.56;4913129;29;20110;-76
2021/10/25 12:03:42;;;;;;;0.52;0.30;;;;;;;23.83;41.65;100306.94;4911162;29;20059;-75
2021/10/25 12:06:16;;;;;;;3.13;0.68;;;;;;;25.61;39.20;100318.94;4909583;29;20062;-76
2021/10/25 12:08:59;;;;;;;0.57;0.25;;;;;;;25.99;36.20;100329.59;4921262;29;20032;-76
2021/10/25 12:14:30;;;;;;;1.55;0.40;;;;;;;23.68;37.35;100307.72;4881104;29;20141;-76
2021/10/25 12:16:56;;;;;;;1.73;0.20;;;;;;;22.56;39.66;100292.50;4882603;29;20084;-75
2021/10/25 12:19:47;;;;;;;2.67;0.60;;;;;;;22.73;41.49;100311.75;4901690;29;20051;-76
2021/10/25 12:22:27;;;;;;;1.10;0.40;;;;;;;22.58;40.76;100290.22;4914588;29;20032;-76
2021/10/25 12:24:56;;;;;;;1.30;0.50;;;;;;;23.42;41.97;100295.06;4909006;29;20028;-75
2021/10/25 12:27:35;;;;;;;2.75;0.50;;;;;;;25.09;38.93;100317.50;4914045;29;20044;-76
2021/10/25 12:30:20;;;;;;;3.92;0.40;;;;;;;27.03;37.19;100307.97;4908682;29;20071;-76
2021/10/25 12:32:58;;;;;;;2.45;0.50;;;;;;;27.78;34.00;100308.06;4912544;29;20032;-76
2021/10/25 12:35:42;;;;;;;0.70;0.40;;;;;;;28.01;34.59;100303.06;4909810;29;20427;-76
2021/10/25 12:38:14;;;;;;;1.83;0.50;;;;;;;27.91;32.79;100317.81;4911554;29;20035;-77
2021/10/25 12:40:44;;;;;;;1.30;0.45;;;;;;;26.70;32.72;100312.38;4911154;29;20047;-76
2021/10/25 12:43:10;;;;;;;0.85;0.50;;;;;;;25.27;34.53;100315.84;4895475;29;20040;-77
2021/10/25 12:45:49;;;;;;;2.85;0.52;;;;;;;23.85;37.33;100301.78;4894457;29;20387;-77
2021/10/25 12:48:25;;;;;;;0.77;0.32;;;;;;;24.10;37.42;100307.22;4916041;29;20040;-75
2021/10/25 12:51:03;;;;;;;0.50;0.38;;;;;;;24.45;36.29;100306.47;4915308;29;20036;-76
2021/10/25 12:53:32;;;;;;;0.75;0.30;;;;;;;24.06;35.22;100281.19;4915360;29;20032;-76
2021/10/25 12:56:00;;;;;;;0.57;0.15;;;;;;;23.22;36.01;100301.66;4898736;29;20057;-75
2021/10/25 12:58:28;;;;;;;1.85;0.30;;;;;;;22.29;38.38;100280.91;4884043;29;20052;-77
2021/10/25 13:00:54;;;;;;;2.53;0.45;;;;;;;21.60;39.62;100286.19;4897258;29;20024;-77
2021/10/25 13:03:29;;;;;;;0.93;0.30;;;;;;;21.50;40.92;100281.03;4896469;29;20033;-75
2021/10/25 13:06:26;;;;;;;0.83;0.40;;;;;;;22.46;40.88;100272.34;4894654;29;20076;-76
2021/10/25 13:09:08;;;;;;;1.33;0.50;;;;;;;24.12;37.34;100287.31;4897264;29;20029;-76
2021/10/25 13:11:34;;;;;;;8.02;0.35;;;;;;;24.78;35.51;100268.06;4894635;29;20024;-75
2021/10/25 13:13:59;;;;;;;1.13;0.35;;;;;;;25.72;35.19;100281.94;4897122;29;20046;-78
2021/10/25 13:16:35;;;;;;;3.67;0.30;;;;;;;26.72;32.85;100279.13;4894872;29;20638;-77
2021/10/25 13:19:10;;;;;;;0.60;0.30;;;;;;;27.58;31.65;100279.38;4867684;29;20435;-77
2021/10/25 13:21:35;;;;;;;0.60;0.40;;;;;;;28.53;29.70;100280.56;4849856;29;20123;-80
2021/10/25 13:24:04;;;;;;;1.27;0.43;;;;;;;28.97;28.47;100286.44;4894277;29;20121;-81
2021/10/25 13:26:31;;;;;;;3.20;0.50;;;;;;;29.25;28.48;100274.50;4880405;29;20024;-79
2021/10/25 13:28:56;;;;;;;0.70;0.20;;;;;;;29.43;25.87;100278.16;4895268;29;20673;-78
2021/10/25 13:31:42;;;;;;;0.85;0.30;;;;;;;29.15;26.32;100269.63;4879840;29;20119;-77
2021/10/25 13:34:20;;;;;;;1.10;0.30;;;;;;;29.21;26.78;100284.91;4879719;29;20048;-79
2021/10/25 13:51:53;;;;;;;;;;;;;;;;;;;;;
2021/10/25 14:01:35;;;;;;;0.68;0.40;;;;;;;31.59;21.93;100262.84;4679852;30;20041;-78
2021/10/25 14:04:17;;;;;;;0.43;0.28;;;;;;;30.99;22.22;100259.09;4702593;30;20056;-79
2021/10/25 14:06:58;;;;;;;;;;;;;;;;;;;;;
2021/10/25 14:10:07;;;;;;;3.90;1.02;;;;;;;30.83;22.94;100270.88;4763033;30;20037;-79
2021/10/25 14:19:10;;;;;;;;;;;;;;;;;;;;;
2021/10/25 14:22:21;;;;;;;0.55;0.30;;;;;;;31.78;22.37;100286.91;4767914;29;20494;-79
2021/10/25 14:45:36;;;;;;;0.90;0.50;;;;;;;28.90;26.39;100268.31;4765419;30;20052;-76
2021/10/25 14:53:52;;;;;;;1.30;0.40;;;;;;;30.29;23.57;100274.59;4827567;29;20045;-77
2021/10/25 14:56:38;;;;;;;3.80;0.52;;;;;;;30.41;23.97;100284.66;4858965;29;20139;-77
2021/10/25 15:00:16;;;;;;;0.73;0.20;;;;;;;29.52;23.35;100291.06;4859304;29;20028;-77
2021/10/25 15:07:06;;;;;;;;;;;;;;;;;;;;;
2021/10/25 15:31:35;;;;;;;0.43;0.30;;;;;;;25.60;30.30;100286.53;4808701;29;20082;-79
2021/10/25 15:34:48;;;;;;;1.65;0.43;;;;;;;23.95;32.12;100294.09;4779127;29;20040;-78
2021/10/25 15:37:50;;;;;;;2.78;1.52;;;;;;;22.92;34.21;100290.81;4775537;29;20095;-79
2021/10/25 15:41:07;;;;;;;6.60;0.20;;;;;;;22.52;35.38;100303.56;4771509;29;20177;-78
2021/10/25 15:44:06;;;;;;;;;;;;;;;;;;;;;
2021/10/25 15:46:41;;;;;;;0.50;0.20;;;;;;;22.26;36.20;100292.75;4822892;29;21611;-76
2021/10/25 15:53:42;;;;;;;;;;;;;;;;;;;;;
2021/10/25 16:10:49;;;;;;;;;;;;;;;;;;;;;
2021/10/25 17:11:35;;;;;;;0.70;0.70;;;;;;;15.51;50.51;100346.59;6286488;22;20027;-74
2021/10/25 17:15:07;;;;;;;;;;;;;;;;;;;;;
2021/10/25 17:18:11;;;;;;;0.70;0.45;;;;;;;15.21;51.69;100369.13;6122646;22;20033;-74
2021/10/25 17:21:03;;;;;;;;;;;;;;;;;;;;;
2021/10/25 17:23:47;;;;;;;0.25;0.25;;;;;;;14.88;52.19;100374.53;6284461;22;20063;-76
2021/10/25 17:26:48;;;;;;;;;;;;;;;;;;;;;
2021/10/25 17:33:09;;;;;;;1.10;1.00;;;;;;;14.45;53.28;100376.13;6265875;22;20016;-73
2021/10/25 17:35:44;;;;;;;1.02;0.80;;;;;;;14.28;53.27;100381.28;6236089;22;20037;-73